Airfield :
LOGIN :

Register | Disclaimer

   EN    FR    IT 

 










Legend :    VFR   Marginal VFR   IFR   Intensive IFR   Very Intensive IFR
Visi :
Ceiling :
>= 8 km
>= 3000ft
5 to 8 km
1000 to 3000 ft
1500m to 5 km
500 to 1000 ft
800 to 1500m
200 to 500 ft
< 800m
< 200 ft
Symbols :   Thunderstorms  Fog  Heavy snow  Heavy precipitations  Wind > 20 kt
SIGMETs :     Misc.  Thunderstorms  Icing  Turbulence  Mountain Waves  Volcanic Ashes






- Airport Elevation : 128 ft


ETND - Diepholz

EXPIRED METARs :
  • 231320Z 23010KT 9999 FEW030 BKN042 19/12 Q1015 BLU
  • 231220Z 23010KT 9999 FEW029 BKN035 18/11 Q1015 BLU
  • 231120Z 25013KT 9999 SCT029 18/11 Q1014 BLU+

TAF TAF ETND
Valid from the 23 at 11:00 until the 23 at 20:00 UTC


231021Z 2311/2320 25010KT 9999 NSW FEW025 SCT180



MET'MAP, your aeronautical weather chart ! - Copyright ORBIFLY December 2007 - Disclaimer

ORBIFLY MET'MAP TEAM :

Programming & Development : Alexandra Zaïnal
Original concept : Baudouin d'Aumeries
Technical & hardware support : Manuel Goepfert
Assistance : Marc-Olivier Méhu




SOURCES & CREDITS :

   NOAA